Grizzly Air Cargo 5355


PAVD
Valdez Pioneer Field Airport
Valdez, Alaska, US
PANC
Ted Stevens Anchorage International Airport
Anchorage, Alaska, US

Activity Log

Date Flight Route Aircraft Duration
11/14/2020 GRZ5355 OLLEO PEPPI SF34 1h 06m
05/01/2020 GRZ5355 JMAAL3 NAKED YESKA YESKA6 SF34 1h 08m
09/26/2019 GRZ555 FJORD1 YESKA YESKA6 SF34 0h 33m

Route Details

Aircraft Information
Primary: Saab 340AF
Backup: Not Available
Route Data
Distance: 120nm
Sched. Duration: 0h 60m
Avg. Duration: 0h 82m (+22m)
Times Flown: 3
Recm'd Route: FJORD1 YESKA YESKA6
Planned Altitude: 16,000ft
Origin Wx: PAVD 160856Z AUTO 00000KT 5SM BR FEW021 OVC065 M01/M01 A2983 RMK AO2 SLP101 6//// T10061006 400221011 51024 FZRANO PNO $
Dest. Wx: PANC 160853Z 31006KT 10SM SCT240 M05/M07 A2962 RMK AO2 SLP033 I3000 T10501067 400061056 53017
Notes:

Financial History
Total Freight: 19,380lbs
Average Load: 6,460lbs/flt
Fuel Used: 2,291lbs
Avg. Fuel Used: 764lbs/flt
Fuel Expense: $2,520
Avg. Fuel Expense: $840
Avg. Fuel Cost: $1.10/lbs
Total Gross Income: $39,454
Pilot Pay: $367
Total Expenses: $4,417
Total Revenue: $32,238
Average Revenue: $13,151.48